Time;durP1;ratioP1;P1;durP2;ratioP2;P2;SDS_P1;SDS_P2;PMS_P1;PMS_P2;Temp;Humidity;BMP_temperature;BMP_pressure;BME280_temperature;BME280_humidity;BME280_pressure;Samples;Min_cycle;Max_cycle;Signal;HPM_P1;HPM_P2
2022/04/18 00:01:11;;;;;;;3.38;1.35;;;12.90;41.70;;;;;;10170807;28;20028;-66
2022/04/18 00:06:02;;;;;;;2.00;1.35;;;12.80;41.80;;;;;;10188548;28;20056;-66
2022/04/18 00:10:53;;;;;;;2.45;1.20;;;12.90;41.70;;;;;;10181931;28;20389;-66
2022/04/18 00:15:44;;;;;;;4.25;1.50;;;12.80;41.80;;;;;;10168402;28;20046;-67
2022/04/18 00:20:34;;;;;;;3.47;1.70;;;12.80;42.20;;;;;;10163462;28;20115;-65
2022/04/18 00:25:25;;;;;;;2.55;1.42;;;12.70;42.40;;;;;;10170278;28;20035;-66
2022/04/18 00:30:16;;;;;;;1.88;1.50;;;12.70;42.40;;;;;;10170847;28;20151;-66
2022/04/18 00:35:07;;;;;;;6.50;2.55;;;12.60;42.50;;;;;;10182358;28;20036;-66
2022/04/18 00:39:57;;;;;;;2.83;1.33;;;12.40;42.60;;;;;;10187652;28;20547;-65
2022/04/18 00:44:48;;;;;;;1.83;1.50;;;12.30;42.80;;;;;;10185362;28;20151;-68
2022/04/18 00:49:39;;;;;;;3.17;1.38;;;12.20;43.00;;;;;;10156884;28;20016;-67
2022/04/18 00:54:31;;;;;;;2.22;1.80;;;12.10;42.90;;;;;;10160618;28;20039;-64
2022/04/18 00:59:22;;;;;;;1.95;1.48;;;12.20;42.80;;;;;;10159750;28;20055;-66
2022/04/18 01:04:13;;;;;;;3.15;1.45;;;12.20;43.20;;;;;;10180878;28;20035;-66
2022/04/18 01:09:04;;;;;;;2.15;1.52;;;12.20;43.20;;;;;;10185802;28;20020;-67
2022/04/18 01:13:55;;;;;;;3.15;1.30;;;12.20;43.60;;;;;;10167974;28;20025;-68
2022/04/18 01:18:45;;;;;;;1.52;1.30;;;12.30;43.50;;;;;;10149686;28;20051;-66
2022/04/18 01:23:37;;;;;;;3.15;1.75;;;12.10;43.80;;;;;;10158676;28;20028;-69
2022/04/18 01:33:38;;;;;;;3.83;1.48;;;11.80;44.10;;;;;;10182443;28;20540;-66
2022/04/18 01:38:29;;;;;;;1.77;1.35;;;11.90;44.10;;;;;;10178845;28;20031;-65
2022/04/18 01:43:20;;;;;;;3.15;1.77;;;11.80;44.10;;;;;;10185714;28;20032;-68
2022/04/18 01:48:11;;;;;;;3.13;1.60;;;11.80;44.00;;;;;;10186861;28;20397;-65
2022/04/18 01:53:03;;;;;;;3.65;1.58;;;11.70;44.20;;;;;;10154439;28;20037;-67
2022/04/18 01:57:54;;;;;;;2.58;1.35;;;11.70;44.60;;;;;;10150481;28;20126;-62
2022/04/18 02:02:44;;;;;;;2.33;1.65;;;11.40;44.60;;;;;;10177733;28;20119;-66
2022/04/18 02:07:35;;;;;;;3.20;1.65;;;11.40;44.80;;;;;;10200779;28;20039;-62
2022/04/18 02:12:26;;;;;;;2.38;1.48;;;11.30;44.80;;;;;;10139913;28;20122;-63
2022/04/18 02:17:17;;;;;;;2.47;1.63;;;11.20;45.20;;;;;;10160104;28;20498;-63
2022/04/18 02:22:07;;;;;;;2.95;1.15;;;10.90;45.30;;;;;;10166218;28;20352;-64
2022/04/18 02:26:58;;;;;;;2.17;1.88;;;10.90;45.90;;;;;;10166551;28;20031;-64
2022/04/18 02:36:58;;;;;;;1.70;1.25;;;10.80;46.20;;;;;;10187343;28;20039;-66
2022/04/18 02:41:49;;;;;;;3.25;1.60;;;10.70;46.00;;;;;;10184894;28;20034;-64
2022/04/18 02:46:40;;;;;;;1.58;1.13;;;10.50;46.80;;;;;;10149947;28;20553;-66
2022/04/18 02:51:30;;;;;;;2.53;1.85;;;10.50;46.70;;;;;;10153569;28;20041;-62
2022/04/18 02:56:21;;;;;;;1.70;1.50;;;10.50;46.80;;;;;;10180155;28;20040;-64
2022/04/18 03:01:12;;;;;;;1.88;1.42;;;10.50;47.00;;;;;;10180376;28;20514;-62
2022/04/18 03:06:03;;;;;;;2.28;1.42;;;10.50;47.30;;;;;;10182433;28;20089;-66
2022/04/18 03:11:06;;;;;;;2.35;1.48;;;10.30;47.30;;;;;;10171226;28;20052;-62
2022/04/18 03:15:56;;;;;;;3.65;1.75;;;10.20;47.70;;;;;;10160267;28;20494;-63
2022/04/18 03:20:47;;;;;;;2.53;1.48;;;10.10;47.80;;;;;;10165018;28;20020;-64
2022/04/18 03:25:38;;;;;;;2.95;1.60;;;10.20;47.80;;;;;;10185557;28;20032;-66
2022/04/18 03:30:28;;;;;;;2.15;1.50;;;10.10;48.00;;;;;;10183325;28;20047;-63
2022/04/18 03:35:19;;;;;;;5.13;1.63;;;10.00;48.40;;;;;;10200134;28;20040;-62
2022/04/18 03:40:10;;;;;;;2.17;1.40;;;10.00;48.90;;;;;;10189998;28;20025;-66
2022/04/18 03:45:04;;;;;;;2.17;1.40;;;9.80;48.80;;;;;;10166511;28;20490;-65
2022/04/18 03:49:55;;;;;;;1.38;1.27;;;9.70;49.00;;;;;;10141780;28;20051;-65
2022/04/18 03:54:46;;;;;;;3.47;2.05;;;9.80;49.00;;;;;;10170251;28;20040;-63
2022/04/18 03:59:37;;;;;;;1.92;1.42;;;9.60;49.80;;;;;;10167781;28;20158;-62
2022/04/18 04:04:28;;;;;;;1.60;1.50;;;9.50;50.20;;;;;;10187073;28;20538;-61
2022/04/18 04:09:19;;;;;;;1.27;1.15;;;9.40;50.50;;;;;;10188573;28;20081;-63
2022/04/18 04:14:10;;;;;;;3.58;1.98;;;9.40;50.40;;;;;;10143164;28;20127;-66
2022/04/18 04:19:01;;;;;;;2.88;1.33;;;9.30;50.60;;;;;;10161937;28;20530;-64
2022/04/18 04:23:51;;;;;;;2.33;1.30;;;9.30;51.10;;;;;;10147507;28;20039;-66
2022/04/18 04:28:42;;;;;;;1.95;1.75;;;9.40;49.90;;;;;;10154807;28;20048;-65
2022/04/18 04:33:33;;;;;;;1.73;1.35;;;9.30;50.10;;;;;;10186895;28;20036;-65
2022/04/18 04:38:24;;;;;;;1.70;1.50;;;9.20;50.80;;;;;;10192807;28;20042;-64
2022/04/18 04:43:15;;;;;;;2.70;1.77;;;9.10;51.00;;;;;;10153991;28;20020;-62
2022/04/18 04:48:05;;;;;;;2.92;1.33;;;9.10;51.10;;;;;;10139768;28;20454;-66
2022/04/18 04:52:56;;;;;;;3.70;1.65;;;9.20;50.80;;;;;;10150443;28;20599;-66
2022/04/18 04:57:47;;;;;;;2.30;1.65;;;9.30;50.90;;;;;;10166184;28;20032;-68
2022/04/18 05:02:37;;;;;;;1.83;1.50;;;9.10;51.30;;;;;;10171310;28;20024;-66
2022/04/18 05:07:28;;;;;;;2.95;1.70;;;9.20;51.30;;;;;;10163630;28;20031;-67
2022/04/18 05:12:19;;;;;;;2.80;1.73;;;9.30;51.30;;;;;;10151339;28;20052;-65
2022/04/18 05:17:10;;;;;;;3.47;1.73;;;9.10;51.20;;;;;;10164725;28;20445;-66
2022/04/18 05:22:01;;;;;;;2.97;1.60;;;9.20;51.10;;;;;;10172047;28;20029;-68
2022/04/18 05:26:51;;;;;;;1.70;1.50;;;9.30;51.30;;;;;;10174073;28;20030;-65
2022/04/18 05:31:42;;;;;;;2.83;1.75;;;9.20;51.80;;;;;;10189516;28;20047;-67
2022/04/18 05:36:33;;;;;;;3.55;1.70;;;9.20;52.00;;;;;;10180706;28;20123;-66
2022/04/18 05:41:23;;;;;;;2.47;1.75;;;9.10;52.20;;;;;;10168649;28;20110;-66
2022/04/18 05:46:14;;;;;;;3.55;2.42;;;9.00;52.70;;;;;;10177235;28;20032;-67
2022/04/18 05:51:05;;;;;;;2.72;1.98;;;9.10;52.70;;;;;;10177986;28;20028;-65
2022/04/18 05:55:55;;;;;;;4.82;2.15;;;9.20;52.80;;;;;;10176504;28;20051;-68
2022/04/18 06:00:46;;;;;;;3.55;2.17;;;9.30;52.50;;;;;;10148336;28;20081;-66
2022/04/18 06:05:37;;;;;;;3.65;2.75;;;9.40;52.50;;;;;;10200501;28;20039;-67
2022/04/18 06:10:27;;;;;;;3.13;1.92;;;9.50;52.00;;;;;;10160989;28;20649;-68
2022/04/18 06:15:18;;;;;;;4.00;2.90;;;9.40;52.20;;;;;;10168863;28;20510;-64
2022/04/18 06:20:09;;;;;;;3.20;2.17;;;9.40;52.20;;;;;;10163091;28;20031;-67
2022/04/18 06:25:00;;;;;;;2.10;1.88;;;9.70;52.30;;;;;;10174236;28;20370;-66
2022/04/18 06:29:51;;;;;;;2.40;1.83;;;9.70;52.10;;;;;;10180036;28;20040;-66
2022/04/18 06:34:42;;;;;;;3.42;2.03;;;9.80;52.10;;;;;;10189606;28;20047;-68
2022/04/18 06:39:32;;;;;;;3.30;1.88;;;10.00;52.10;;;;;;10175378;28;20503;-67
2022/04/18 06:44:24;;;;;;;3.75;2.15;;;10.00;52.30;;;;;;10173461;28;20441;-66
2022/04/18 06:49:15;;;;;;;3.92;2.83;;;10.00;52.20;;;;;;10147158;28;20069;-64
2022/04/18 06:54:05;;;;;;;4.25;2.35;;;10.10;52.10;;;;;;10168628;28;20035;-66
2022/04/18 06:58:56;;;;;;;3.40;1.90;;;10.20;52.20;;;;;;10175533;28;20078;-68
2022/04/18 07:03:47;;;;;;;2.53;1.83;;;10.30;52.10;;;;;;10170187;28;20434;-67
2022/04/18 07:08:38;;;;;;;2.38;1.95;;;10.20;52.20;;;;;;10178545;28;20028;-65
2022/04/18 07:13:29;;;;;;;3.78;2.15;;;10.30;52.30;;;;;;10169816;28;20063;-67
2022/04/18 07:18:20;;;;;;;4.35;1.90;;;10.50;52.40;;;;;;10168805;28;20044;-69
2022/04/18 07:23:11;;;;;;;3.08;2.13;;;10.50;52.80;;;;;;10174616;28;20024;-69
2022/04/18 07:28:01;;;;;;;2.70;1.95;;;10.60;52.30;;;;;;10177414;28;20085;-66
2022/04/18 07:32:52;;;;;;;3.45;2.17;;;10.80;52.20;;;;;;10171557;28;20036;-68
2022/04/18 07:42:52;;;;;;;3.90;2.35;;;11.00;52.00;;;;;;10173832;28;20252;-66
2022/04/18 07:47:43;;;;;;;2.85;2.10;;;11.20;51.90;;;;;;10173678;28;20035;-66
2022/04/18 07:52:33;;;;;;;2.38;2.10;;;11.30;51.90;;;;;;10172991;28;20043;-66
2022/04/18 07:57:24;;;;;;;3.20;2.42;;;11.40;51.90;;;;;;10180140;28;20307;-66
2022/04/18 08:02:15;;;;;;;4.40;2.47;;;11.60;51.70;;;;;;10171576;28;20028;-67
2022/04/18 08:07:06;;;;;;;2.92;1.95;;;11.70;51.60;;;;;;10169042;28;20016;-66
2022/04/18 08:11:57;;;;;;;2.65;2.38;;;11.90;51.60;;;;;;10172790;28;20474;-68
2022/04/18 08:16:47;;;;;;;3.05;2.33;;;12.00;51.50;;;;;;10190252;28;20035;-67
2022/04/18 08:21:38;;;;;;;3.97;2.08;;;12.20;51.20;;;;;;10198566;28;20023;-67
2022/04/18 08:26:29;;;;;;;3.03;2.00;;;12.30;50.90;;;;;;10191666;28;20036;-66
2022/04/18 08:31:20;;;;;;;5.05;2.05;;;12.40;50.80;;;;;;10166099;28;20560;-66
2022/04/18 08:36:10;;;;;;;3.53;1.85;;;12.70;50.50;;;;;;10163726;28;20036;-66
2022/04/18 08:41:04;;;;;;;3.85;1.70;;;12.70;50.30;;;;;;10182696;28;20315;-67
2022/04/18 08:45:56;;;;;;;3.42;1.95;;;12.90;50.00;;;;;;10161864;28;20032;-66
2022/04/18 08:55:59;;;;;;;5.45;2.35;;;13.10;49.80;;;;;;10154189;28;20042;-67
2022/04/18 09:00:50;;;;;;;2.70;1.88;;;13.30;49.60;;;;;;10177314;28;20161;-65
2022/04/18 09:05:41;;;;;;;3.42;2.10;;;13.50;49.20;;;;;;10167621;28;20605;-64
2022/04/18 09:10:32;;;;;;;3.65;1.80;;;13.50;49.10;;;;;;10184643;28;20444;-66
2022/04/18 09:15:48;;;;;;;4.15;2.08;;;13.60;48.90;;;;;;10187755;28;20453;-65
2022/04/18 09:20:48;;;;;;;3.45;1.95;;;13.60;48.30;;;;;;10173511;28;20044;-64
2022/04/18 09:25:38;;;;;;;3.00;1.83;;;13.70;48.50;;;;;;10200939;28;20027;-66
2022/04/18 09:30:32;;;;;;;2.20;1.38;;;14.00;48.20;;;;;;10184817;28;20147;-69
2022/04/18 09:35:25;;;;;;;2.88;1.80;;;14.20;47.90;;;;;;10170010;28;20035;-67
2022/04/18 09:40:21;;;;;;;2.50;1.52;;;14.10;47.50;;;;;;10151857;28;20104;-65
2022/04/18 09:45:12;;;;;;;3.25;1.45;;;14.20;47.50;;;;;;10171008;28;20032;-68
2022/04/18 09:55:45;;;;;;;2.88;2.03;;;14.60;46.50;;;;;;10142722;28;20115;-67
2022/04/18 10:00:37;;;;;;;2.55;1.85;;;14.80;46.20;;;;;;10174875;28;20031;-66
2022/04/18 10:05:28;;;;;;;1.58;1.15;;;14.90;46.10;;;;;;10169848;28;20036;-66
2022/04/18 10:10:20;;;;;;;2.50;1.50;;;15.00;45.60;;;;;;10156618;28;20032;-66
2022/04/18 10:15:11;;;;;;;4.28;1.95;;;14.80;45.50;;;;;;10184561;28;20054;-66
2022/04/18 10:20:24;;;;;;;2.13;1.38;;;15.00;45.30;;;;;;10182878;28;20039;-66
2022/04/18 10:25:48;;;;;;;2.60;1.88;;;15.00;45.30;;;;;;10175152;28;20062;-66
2022/04/18 10:30:46;;;;;;;4.45;1.67;;;15.20;44.50;;;;;;10156124;28;20031;-68
2022/04/18 10:35:45;;;;;;;2.25;1.70;;;15.30;44.20;;;;;;10181724;28;20044;-68
2022/04/18 10:40:40;;;;;;;3.95;1.70;;;15.30;44.30;;;;;;10169394;28;20031;-65
2022/04/18 10:45:31;;;;;;;3.42;2.20;;;15.40;43.90;;;;;;10150394;28;20249;-67
2022/04/18 10:50:24;;;;;;;2.45;1.63;;;15.50;44.00;;;;;;10177558;28;20267;-63
2022/04/18 10:55:20;;;;;;;4.07;2.00;;;15.50;44.00;;;;;;10174801;28;20536;-68
2022/04/18 11:00:10;;;;;;;3.35;1.80;;;15.60;43.90;;;;;;10171595;28;20068;-67
2022/04/18 11:05:01;;;;;;;4.13;2.33;;;15.80;43.80;;;;;;10163212;28;20028;-68
2022/04/18 11:09:52;;;;;;;2.10;1.52;;;15.90;43.80;;;;;;10177331;28;20019;-69
2022/04/18 11:14:51;;;;;;;4.93;2.33;;;15.90;43.80;;;;;;10179472;28;20034;-66
2022/04/18 11:19:43;;;;;;;2.22;1.70;;;15.90;43.60;;;;;;10169688;28;20031;-68
2022/04/18 11:24:49;;;;;;;4.47;2.40;;;16.00;43.50;;;;;;10199886;28;20030;-66
2022/04/18 11:29:43;;;;;;;3.45;2.58;;;16.30;43.30;;;;;;10159526;28;20470;-66
2022/04/18 11:34:35;;;;;;;2.40;1.55;;;16.40;43.20;;;;;;10152564;28;20036;-66
2022/04/18 11:39:45;;;;;;;3.72;1.65;;;16.50;42.80;;;;;;10152217;28;20093;-66
2022/04/18 11:44:40;;;;;;;3.40;1.50;;;16.40;42.20;;;;;;10165710;28;20112;-65
2022/04/18 11:49:31;;;;;;;1.73;1.30;;;16.50;42.70;;;;;;10174300;28;20519;-67
2022/04/18 11:54:22;;;;;;;6.07;1.63;;;16.50;42.50;;;;;;10179976;28;20044;-66
2022/04/18 11:59:12;;;;;;;4.93;1.92;;;16.70;42.50;;;;;;10150151;28;20077;-66
2022/04/18 12:09:16;;;;;;;2.83;1.80;;;16.90;42.10;;;;;;10170421;28;20138;-67
2022/04/18 12:14:06;;;;;;;2.97;1.77;;;17.20;41.90;;;;;;10175936;28;20028;-65
2022/04/18 12:18:57;;;;;;;7.68;3.00;;;17.40;41.70;;;;;;10181635;28;20021;-68
2022/04/18 12:23:56;;;;;;;12.40;5.63;;;17.80;41.60;;;;;;10193756;28;20025;-66
2022/04/18 12:28:47;;;;;;;4.75;2.75;;;18.10;41.30;;;;;;10167271;28;20044;-68
2022/04/18 12:33:48;;;;;;;3.80;2.38;;;18.40;41.50;;;;;;10162434;28;20074;-66
2022/04/18 12:38:39;;;;;;;2.88;1.60;;;18.80;41.70;;;;;;10147774;28;20303;-65
2022/04/18 12:43:37;;;;;;;4.75;2.10;;;19.20;41.80;;;;;;10135864;28;20266;-66
2022/04/18 12:48:32;;;;;;;4.22;1.50;;;19.50;41.90;;;;;;10175433;28;20035;-64
2022/04/18 12:53:43;;;;;;;2.92;2.40;;;19.90;42.00;;;;;;10167995;28;20024;-63
2022/04/18 12:58:39;;;;;;;2.28;1.40;;;20.10;39.30;;;;;;10180926;28;20091;-64
2022/04/18 13:03:30;;;;;;;2.15;1.20;;;20.20;41.40;;;;;;10150975;28;20024;-66
2022/04/18 13:08:20;;;;;;;2.63;1.77;;;21.00;40.90;;;;;;10148027;28;20089;-63
2022/04/18 13:13:17;;;;;;;2.70;2.03;;;21.60;40.60;;;;;;10155090;28;20024;-68
2022/04/18 13:18:10;;;;;;;6.22;4.40;;;23.40;39.30;;;;;;10173471;28;20400;-68
2022/04/18 13:23:03;;;;;;;2.17;1.58;;;24.60;38.00;;;;;;10180008;28;20051;-68
2022/04/18 13:27:55;;;;;;;1.95;1.20;;;25.30;36.60;;;;;;10174236;28;20111;-70
2022/04/18 13:32:45;;;;;;;2.65;1.42;;;26.30;35.00;;;;;;10203353;28;20073;-68
2022/04/18 13:37:36;;;;;;;3.17;1.40;;;27.00;34.20;;;;;;10168239;28;20081;-65
2022/04/18 13:42:27;;;;;;;1.20;1.10;;;27.00;33.40;;;;;;10179827;28;20046;-69
2022/04/18 13:47:18;;;;;;;2.83;1.35;;;27.40;32.70;;;;;;10169611;28;20118;-69
2022/04/18 13:52:09;;;;;;;2.33;1.27;;;27.70;32.00;;;;;;10177959;28;20067;-67
2022/04/18 13:56:59;;;;;;;1.80;1.33;;;29.10;31.50;;;;;;10190715;28;20126;-67
2022/04/18 14:01:50;;;;;;;3.90;1.53;;;29.30;30.70;;;;;;10174561;28;20115;-65
2022/04/18 14:06:41;;;;;;;1.57;1.47;;;28.30;30.80;;;;;;10158500;28;20057;-66
2022/04/18 14:11:33;;;;;;;2.97;1.53;;;29.20;30.40;;;;;;10168211;28;20520;-66
2022/04/18 14:21:44;;;;;;;3.90;2.00;;;28.70;29.90;;;;;;10098615;28;20324;-67
2022/04/18 14:26:35;;;;;;;2.53;1.48;;;28.10;29.80;;;;;;10170569;28;20039;-66
2022/04/18 14:31:26;;;;;;;3.37;1.60;;;28.50;29.60;;;;;;10178398;28;20044;-68
2022/04/18 14:36:19;;;;;;;3.67;1.20;;;28.00;29.30;;;;;;10156713;28;20036;-68
2022/04/18 14:41:09;;;;;;;4.30;2.10;;;27.70;29.40;;;;;;10172389;28;20023;-67
2022/04/18 14:46:00;;;;;;;2.58;1.70;;;28.10;29.20;;;;;;10175366;28;20028;-66
2022/04/18 14:50:51;;;;;;;1.52;1.33;;;28.20;29.10;;;;;;10175700;28;20095;-67
2022/04/18 14:55:42;;;;;;;2.03;1.25;;;28.20;28.90;;;;;;10152301;28;20041;-67
2022/04/18 15:00:34;;;;;;;1.58;1.20;;;28.10;28.90;;;;;;10158524;28;20028;-67
2022/04/18 15:05:25;;;;;;;2.95;1.42;;;28.00;28.70;;;;;;10168549;28;20039;-66
2022/04/18 15:10:16;;;;;;;2.85;1.50;;;28.80;28.40;;;;;;10177621;28;20036;-67
2022/04/18 15:15:07;;;;;;;4.35;1.98;;;28.20;28.40;;;;;;10158091;28;20028;-68
2022/04/18 15:19:58;;;;;;;3.38;1.50;;;28.50;28.30;;;;;;10198670;28;20342;-67
2022/04/18 15:24:49;;;;;;;1.67;1.50;;;29.90;28.00;;;;;;10186683;28;20110;-67
2022/04/18 15:29:40;;;;;;;4.22;1.85;;;30.80;27.80;;;;;;10176303;28;20131;-66
2022/04/18 15:34:31;;;;;;;4.63;1.75;;;32.40;27.30;;;;;;10173714;28;20177;-69
2022/04/18 15:39:22;;;;;;;1.80;1.40;;;31.90;27.30;;;;;;10173349;28;20056;-68
2022/04/18 15:44:12;;;;;;;2.92;1.55;;;31.80;27.00;;;;;;10180990;28;20025;-66
2022/04/18 15:49:03;;;;;;;2.38;1.60;;;30.70;27.20;;;;;;10178000;28;20092;-67
2022/04/18 15:53:54;;;;;;;1.58;1.48;;;31.50;26.90;;;;;;10159524;28;20457;-68
2022/04/18 15:58:44;;;;;;;2.58;1.90;;;32.50;26.50;;;;;;10145298;28;20491;-68
2022/04/18 16:03:35;;;;;;;2.35;1.95;;;31.60;26.50;;;;;;10150343;28;20024;-67
2022/04/18 16:08:26;;;;;;;2.55;1.50;;;30.80;26.40;;;;;;10160480;28;20060;-68
2022/04/18 16:13:18;;;;;;;2.97;2.15;;;31.20;26.20;;;;;;10171450;28;20153;-67
2022/04/18 16:18:08;;;;;;;2.13;1.67;;;32.20;25.80;;;;;;10181455;28;20394;-68
2022/04/18 16:22:59;;;;;;;2.90;1.70;;;32.20;25.60;;;;;;10193146;28;20031;-67
2022/04/18 16:27:50;;;;;;;3.08;2.00;;;32.10;25.60;;;;;;10193808;28;20023;-69
2022/04/18 16:32:40;;;;;;;3.47;1.60;;;31.70;25.50;;;;;;10167048;28;20048;-69
2022/04/18 16:37:31;;;;;;;3.42;2.17;;;32.80;25.30;;;;;;10150806;28;20051;-67
2022/04/18 16:47:31;;;;;;;3.42;2.05;;;31.80;25.50;;;;;;10170929;28;20541;-68
2022/04/18 16:52:22;;;;;;;3.97;2.00;;;31.90;25.40;;;;;;10157170;28;20035;-66
2022/04/18 16:57:12;;;;;;;2.38;2.05;;;31.70;25.60;;;;;;10170034;28;20452;-67
2022/04/18 17:02:04;;;;;;;4.03;2.38;;;31.60;25.60;;;;;;10179665;28;20027;-68
2022/04/18 17:06:55;;;;;;;3.10;2.23;;;31.90;25.70;;;;;;10178850;28;20032;-65
2022/04/18 17:11:45;;;;;;;2.90;2.25;;;31.60;25.80;;;;;;10184924;28;20057;-68
2022/04/18 17:16:36;;;;;;;3.15;1.80;;;30.40;25.90;;;;;;10175450;28;20540;-69
2022/04/18 17:21:26;;;;;;;3.90;1.70;;;29.90;25.90;;;;;;10178559;28;20028;-67
2022/04/18 17:26:17;;;;;;;2.20;2.00;;;25.50;27.80;;;;;;10177101;28;20028;-68
2022/04/18 17:31:08;;;;;;;3.33;2.22;;;23.10;29.20;;;;;;10150766;28;20726;-67
2022/04/18 17:35:59;;;;;;;3.20;1.88;;;21.80;29.80;;;;;;10174023;28;20315;-67
2022/04/18 17:40:50;;;;;;;2.47;1.63;;;21.10;30.10;;;;;;10178493;28;20039;-66
2022/04/18 17:45:41;;;;;;;3.40;1.52;;;20.70;30.60;;;;;;10184318;28;20144;-64
2022/04/18 17:50:31;;;;;;;4.30;1.98;;;20.30;31.10;;;;;;10173955;28;20024;-67
2022/04/18 18:00:32;;;;;;;3.78;1.60;;;19.90;31.70;;;;;;10152737;28;20047;-66
2022/04/18 18:05:23;;;;;;;2.97;1.50;;;19.80;31.80;;;;;;10163903;28;20558;-61
2022/04/18 18:10:14;;;;;;;4.95;2.22;;;19.70;31.90;;;;;;10156896;28;20127;-66
2022/04/18 18:15:06;;;;;;;3.92;1.60;;;19.50;32.30;;;;;;10184651;28;20062;-67
2022/04/18 18:19:56;;;;;;;2.17;1.42;;;19.40;32.50;;;;;;10194631;28;20586;-65
2022/04/18 18:24:47;;;;;;;5.03;1.85;;;19.20;33.00;;;;;;10196520;28;20428;-65
2022/04/18 18:29:38;;;;;;;3.72;1.50;;;19.10;33.20;;;;;;10189940;28;20535;-65
2022/04/18 18:34:28;;;;;;;2.70;1.65;;;19.00;33.30;;;;;;10149932;28;20044;-67
2022/04/18 18:39:19;;;;;;;2.83;1.48;;;19.00;33.40;;;;;;10156943;28;20078;-66
2022/04/18 18:44:09;;;;;;;2.92;1.48;;;18.90;33.60;;;;;;10179748;28;20050;-63
2022/04/18 18:49:00;;;;;;;4.28;1.98;;;18.70;33.80;;;;;;10183867;28;20108;-64
2022/04/18 18:53:52;;;;;;;4.43;2.30;;;18.60;34.20;;;;;;10159856;28;20078;-68
2022/04/18 18:58:45;;;;;;;3.53;2.38;;;18.50;34.60;;;;;;10147784;28;20039;-68
2022/04/18 19:03:36;;;;;;;2.55;1.80;;;18.40;34.70;;;;;;10153088;28;20044;-69
2022/04/18 19:08:27;;;;;;;5.05;2.65;;;18.30;34.70;;;;;;10153056;28;20487;-68
2022/04/18 19:13:18;;;;;;;2.47;1.33;;;18.30;34.80;;;;;;10181265;28;20031;-66
2022/04/18 19:28:31;;;;;;;4.28;2.00;;;18.00;35.50;;;;;;10158752;28;20039;-67
2022/04/18 19:33:23;;;;;;;3.10;1.75;;;17.90;35.50;;;;;;10165600;28;20245;-66
2022/04/18 19:38:14;;;;;;;4.30;1.48;;;17.80;35.60;;;;;;10167024;28;20051;-69
2022/04/18 19:43:05;;;;;;;3.35;1.63;;;17.70;35.70;;;;;;10170426;28;20033;-67
2022/04/18 19:47:55;;;;;;;3.15;1.75;;;17.60;35.90;;;;;;10156683;28;20054;-68
2022/04/18 19:52:46;;;;;;;2.85;1.50;;;17.50;36.10;;;;;;10179564;28;20310;-68
2022/04/18 19:57:40;;;;;;;2.65;1.90;;;17.40;36.30;;;;;;10161491;28;20105;-67
2022/04/18 20:02:31;;;;;;;1.33;1.10;;;17.30;36.60;;;;;;10159870;28;20020;-66
2022/04/18 20:07:25;;;;;;;1.85;1.20;;;17.10;36.80;;;;;;10151257;28;20028;-69
2022/04/18 20:12:16;;;;;;;2.85;1.55;;;17.10;36.90;;;;;;10159632;28;20031;-65
2022/04/18 20:17:10;;;;;;;1.83;1.25;;;17.00;37.10;;;;;;10161577;28;20036;-67
2022/04/18 20:22:01;;;;;;;2.50;1.50;;;17.00;37.30;;;;;;10174053;28;20050;-67
2022/04/18 20:26:52;;;;;;;4.75;1.77;;;16.90;37.40;;;;;;10172293;28;20581;-67
2022/04/18 20:31:43;;;;;;;1.65;1.15;;;16.90;37.50;;;;;;10168042;28;20111;-67
2022/04/18 20:36:34;;;;;;;2.58;1.20;;;16.70;37.80;;;;;;10163874;28;20109;-68
2022/04/18 20:41:25;;;;;;;1.90;1.58;;;16.70;37.90;;;;;;10171839;28;20047;-65
2022/04/18 20:46:16;;;;;;;1.75;1.33;;;16.70;37.90;;;;;;10172526;28;20103;-66
